sensor_id;sensor_type;location;lat;lon;timestamp;pressure;altitude;pressure_sealevel;temperature;humidity
73870;BME280;64924;42.140;24.762;2023-12-20T00:02:08;100077.78;;;6.77;63.34
73870;BME280;64924;42.140;24.762;2023-12-20T00:04:34;100067.97;;;6.67;63.00
73870;BME280;64924;42.140;24.762;2023-12-20T00:06:59;100067.97;;;6.67;63.06
73870;BME280;64924;42.140;24.762;2023-12-20T00:09:24;100069.63;;;6.68;62.81
73870;BME280;64924;42.140;24.762;2023-12-20T00:11:50;100018.22;;;6.44;62.70
73870;BME280;64924;42.140;24.762;2023-12-20T00:14:15;100067.78;;;6.69;63.08
73870;BME280;64924;42.140;24.762;2023-12-20T00:16:41;100074.72;;;6.71;63.01
73870;BME280;64924;42.140;24.762;2023-12-20T00:19:06;100061.03;;;6.73;62.84
73870;BME280;64924;42.140;24.762;2023-12-20T00:21:32;100061.88;;;6.74;63.00
73870;BME280;64924;42.140;24.762;2023-12-20T00:23:58;100017.75;;;6.49;62.65
73870;BME280;64924;42.140;24.762;2023-12-20T00:26:23;100024.84;;;6.50;62.59
73870;BME280;64924;42.140;24.762;2023-12-20T00:28:49;100050.06;;;6.66;63.00
73870;BME280;64924;42.140;24.762;2023-12-20T00:31:14;100002.03;;;6.44;62.98
73870;BME280;64924;42.140;24.762;2023-12-20T00:33:40;100047.53;;;6.65;62.77
73870;BME280;64924;42.140;24.762;2023-12-20T00:36:09;100056.44;;;6.57;63.08
73870;BME280;64924;42.140;24.762;2023-12-20T00:38:35;100036.97;;;6.46;63.87
73870;BME280;64924;42.140;24.762;2023-12-20T00:41:00;100032.25;;;6.48;63.98
73870;BME280;64924;42.140;24.762;2023-12-20T00:43:26;100031.06;;;6.50;63.61
73870;BME280;64924;42.140;24.762;2023-12-20T00:45:52;100036.16;;;6.53;63.95
73870;BME280;64924;42.140;24.762;2023-12-20T00:48:17;99980.22;;;6.29;63.60
73870;BME280;64924;42.140;24.762;2023-12-20T00:50:43;100027.41;;;6.59;63.27
73870;BME280;64924;42.140;24.762;2023-12-20T00:53:08;100020.84;;;6.62;62.80
73870;BME280;64924;42.140;24.762;2023-12-20T00:55:33;100024.56;;;6.61;63.22
73870;BME280;64924;42.140;24.762;2023-12-20T00:57:59;100015.63;;;6.60;63.13
73870;BME280;64924;42.140;24.762;2023-12-20T01:00:25;100019.16;;;6.61;63.46
73870;BME280;64924;42.140;24.762;2023-12-20T01:02:51;100002.25;;;6.51;63.29
73870;BME280;64924;42.140;24.762;2023-12-20T01:05:18;100015.63;;;6.60;63.16
73870;BME280;64924;42.140;24.762;2023-12-20T01:07:43;100007.00;;;6.57;63.23
73870;BME280;64924;42.140;24.762;2023-12-20T01:10:09;100000.44;;;6.59;63.18
73870;BME280;64924;42.140;24.762;2023-12-20T01:12:36;100005.50;;;6.62;63.24
73870;BME280;64924;42.140;24.762;2023-12-20T01:15:02;99998.72;;;6.58;63.01
73870;BME280;64924;42.140;24.762;2023-12-20T01:17:27;99997.38;;;6.54;62.96
73870;BME280;64924;42.140;24.762;2023-12-20T01:19:53;99995.03;;;6.59;62.75
73870;BME280;64924;42.140;24.762;2023-12-20T01:22:18;99939.53;;;6.23;63.04
73870;BME280;64924;42.140;24.762;2023-12-20T01:24:44;99984.34;;;6.50;63.30
73870;BME280;64924;42.140;24.762;2023-12-20T01:27:09;99968.81;;;6.44;63.16
73870;BME280;64924;42.140;24.762;2023-12-20T01:29:35;99974.00;;;6.37;63.28
73870;BME280;64924;42.140;24.762;2023-12-20T01:32:00;99973.16;;;6.36;63.19
73870;BME280;64924;42.140;24.762;2023-12-20T01:34:26;99986.47;;;6.38;63.13
73870;BME280;64924;42.140;24.762;2023-12-20T01:36:51;99971.97;;;6.31;63.06
73870;BME280;64924;42.140;24.762;2023-12-20T01:39:17;99964.50;;;6.25;63.31
73870;BME280;64924;42.140;24.762;2023-12-20T01:41:43;99942.81;;;6.09;63.15
73870;BME280;64924;42.140;24.762;2023-12-20T01:44:08;99971.78;;;6.32;63.02
73870;BME280;64924;42.140;24.762;2023-12-20T01:46:34;99975.47;;;6.31;63.21
73870;BME280;64924;42.140;24.762;2023-12-20T01:49:00;99963.53;;;6.34;62.81
73870;BME280;64924;42.140;24.762;2023-12-20T01:51:26;99961.81;;;6.25;62.96
73870;BME280;64924;42.140;24.762;2023-12-20T01:53:54;99957.56;;;6.22;63.23
73870;BME280;64924;42.140;24.762;2023-12-20T01:56:20;99899.59;;;5.92;62.95
73870;BME280;64924;42.140;24.762;2023-12-20T01:58:47;99946.25;;;6.19;63.12
73870;BME280;64924;42.140;24.762;2023-12-20T02:01:13;99941.03;;;6.17;63.02
73870;BME280;64924;42.140;24.762;2023-12-20T02:03:42;99954.72;;;6.24;63.01
73870;BME280;64924;42.140;24.762;2023-12-20T02:06:08;99949.28;;;6.16;63.19
73870;BME280;64924;42.140;24.762;2023-12-20T02:08:34;99890.00;;;5.90;62.86
73870;BME280;64924;42.140;24.762;2023-12-20T02:11:00;99925.31;;;6.13;62.71
73870;BME280;64924;42.140;24.762;2023-12-20T02:13:25;99930.75;;;6.21;62.64
73870;BME280;64924;42.140;24.762;2023-12-20T02:15:52;99867.84;;;5.86;62.65
73870;BME280;64924;42.140;24.762;2023-12-20T02:18:18;99905.38;;;6.06;62.77
73870;BME280;64924;42.140;24.762;2023-12-20T02:20:43;99924.25;;;6.06;62.87
73870;BME280;64924;42.140;24.762;2023-12-20T02:23:09;99896.97;;;5.83;63.10
73870;BME280;64924;42.140;24.762;2023-12-20T02:25:34;99925.91;;;5.98;63.01
73870;BME280;64924;42.140;24.762;2023-12-20T02:28:00;99909.03;;;5.96;63.25
73870;BME280;64924;42.140;24.762;2023-12-20T02:30:26;99871.13;;;5.72;63.07
73870;BME280;64924;42.140;24.762;2023-12-20T02:32:52;99912.94;;;5.94;63.28
73870;BME280;64924;42.140;24.762;2023-12-20T02:35:18;99903.75;;;5.87;63.48
73870;BME280;64924;42.140;24.762;2023-12-20T02:37:44;99866.06;;;5.69;63.13
73870;BME280;64924;42.140;24.762;2023-12-20T02:40:09;99864.16;;;5.61;63.28
73870;BME280;64924;42.140;24.762;2023-12-20T02:42:35;99858.59;;;5.63;63.00
73870;BME280;64924;42.140;24.762;2023-12-20T02:45:01;99911.00;;;5.86;63.33
73870;BME280;64924;42.140;24.762;2023-12-20T02:47:26;99911.56;;;5.90;63.37
73870;BME280;64924;42.140;24.762;2023-12-20T02:49:52;99902.75;;;5.88;63.46
73870;BME280;64924;42.140;24.762;2023-12-20T02:52:18;99889.44;;;5.86;62.90
73870;BME280;64924;42.140;24.762;2023-12-20T02:54:43;99870.81;;;5.75;62.81
73870;BME280;64924;42.140;24.762;2023-12-20T02:57:09;99886.34;;;5.81;62.69
73870;BME280;64924;42.140;24.762;2023-12-20T02:59:34;99882.81;;;5.81;62.88
73870;BME280;64924;42.140;24.762;2023-12-20T03:02:00;99880.75;;;5.75;63.11
73870;BME280;64924;42.140;24.762;2023-12-20T03:04:25;99887.16;;;5.74;63.25
73870;BME280;64924;42.140;24.762;2023-12-20T03:06:50;99871.69;;;5.50;63.19
73870;BME280;64924;42.140;24.762;2023-12-20T03:09:16;99889.72;;;5.57;63.63
73870;BME280;64924;42.140;24.762;2023-12-20T03:11:41;99885.53;;;5.55;63.39
73870;BME280;64924;42.140;24.762;2023-12-20T03:14:07;99871.47;;;5.43;63.40
73870;BME280;64924;42.140;24.762;2023-12-20T03:16:32;99854.00;;;5.29;64.07
73870;BME280;64924;42.140;24.762;2023-12-20T03:18:58;99863.22;;;5.45;64.08
73870;BME280;64924;42.140;24.762;2023-12-20T03:21:24;99846.84;;;5.38;63.71
73870;BME280;64924;42.140;24.762;2023-12-20T03:23:49;99836.91;;;5.38;63.38
73870;BME280;64924;42.140;24.762;2023-12-20T03:26:14;99878.13;;;5.57;63.42
73870;BME280;64924;42.140;24.762;2023-12-20T03:28:40;99864.31;;;5.60;63.45
73870;BME280;64924;42.140;24.762;2023-12-20T03:31:05;99869.69;;;5.60;63.43
73870;BME280;64924;42.140;24.762;2023-12-20T03:33:31;99830.84;;;5.36;63.14
73870;BME280;64924;42.140;24.762;2023-12-20T03:35:56;99868.22;;;5.65;63.16
73870;BME280;64924;42.140;24.762;2023-12-20T03:38:22;99842.28;;;5.38;62.72
73870;BME280;64924;42.140;24.762;2023-12-20T03:40:49;99868.00;;;5.33;63.57
73870;BME280;64924;42.140;24.762;2023-12-20T03:43:15;99854.22;;;5.36;63.67
73870;BME280;64924;42.140;24.762;2023-12-20T03:45:42;99856.25;;;5.34;63.64
73870;BME280;64924;42.140;24.762;2023-12-20T03:48:07;99842.69;;;5.26;63.60
73870;BME280;64924;42.140;24.762;2023-12-20T03:50:33;99852.16;;;5.30;63.67
73870;BME280;64924;42.140;24.762;2023-12-20T03:52:59;99856.72;;;5.29;63.73
73870;BME280;64924;42.140;24.762;2023-12-20T03:55:24;99808.38;;;5.02;63.68
73870;BME280;64924;42.140;24.762;2023-12-20T03:57:50;99858.88;;;5.26;63.38
73870;BME280;64924;42.140;24.762;2023-12-20T04:00:15;99859.78;;;5.34;63.38
73870;BME280;64924;42.140;24.762;2023-12-20T04:02:41;99857.78;;;5.36;63.38
73870;BME280;64924;42.140;24.762;2023-12-20T04:05:08;99872.63;;;5.41;62.85
73870;BME280;64924;42.140;24.762;2023-12-20T04:07:34;99873.78;;;5.38;63.28
73870;BME280;64924;42.140;24.762;2023-12-20T04:10:00;99863.31;;;5.35;62.74
73870;BME280;64924;42.140;24.762;2023-12-20T04:12:27;99806.00;;;4.99;62.73
73870;BME280;64924;42.140;24.762;2023-12-20T04:14:52;99840.97;;;5.17;63.40
73870;BME280;64924;42.140;24.762;2023-12-20T04:17:17;99846.41;;;5.25;63.28
73870;BME280;64924;42.140;24.762;2023-12-20T04:19:43;99856.88;;;5.28;63.22
73870;BME280;64924;42.140;24.762;2023-12-20T04:22:09;99847.94;;;5.27;63.10
73870;BME280;64924;42.140;24.762;2023-12-20T04:24:34;99849.00;;;5.09;63.07
73870;BME280;64924;42.140;24.762;2023-12-20T04:27:00;99846.28;;;5.09;63.69
73870;BME280;64924;42.140;24.762;2023-12-20T04:29:26;99844.59;;;5.08;63.68
73870;BME280;64924;42.140;24.762;2023-12-20T04:31:51;99849.84;;;5.09;63.57
73870;BME280;64924;42.140;24.762;2023-12-20T04:34:17;99851.22;;;5.13;63.63
73870;BME280;64924;42.140;24.762;2023-12-20T04:36:43;99844.28;;;5.11;63.76
73870;BME280;64924;42.140;24.762;2023-12-20T04:39:08;99838.38;;;5.07;63.58
73870;BME280;64924;42.140;24.762;2023-12-20T04:41:34;99840.44;;;5.13;63.90
73870;BME280;64924;42.140;24.762;2023-12-20T04:43:59;99798.00;;;4.89;64.80
73870;BME280;64924;42.140;24.762;2023-12-20T04:46:26;99838.47;;;5.23;64.58
73870;BME280;64924;42.140;24.762;2023-12-20T04:48:51;99831.09;;;5.25;64.44
73870;BME280;64924;42.140;24.762;2023-12-20T04:51:17;99776.91;;;4.77;63.79
73870;BME280;64924;42.140;24.762;2023-12-20T04:53:42;99823.84;;;5.00;63.88
73870;BME280;64924;42.140;24.762;2023-12-20T04:56:08;99827.59;;;5.07;64.36
73870;BME280;64924;42.140;24.762;2023-12-20T04:58:33;99804.84;;;5.01;63.68
73870;BME280;64924;42.140;24.762;2023-12-20T05:00:59;99776.47;;;4.89;63.12
73870;BME280;64924;42.140;24.762;2023-12-20T05:03:24;99823.13;;;5.16;62.63
73870;BME280;64924;42.140;24.762;2023-12-20T05:05:49;99833.75;;;5.17;62.49
73870;BME280;64924;42.140;24.762;2023-12-20T05:08:15;99812.81;;;5.11;62.60
73870;BME280;64924;42.140;24.762;2023-12-20T05:10:40;99802.38;;;5.08;62.86
73870;BME280;64924;42.140;24.762;2023-12-20T05:13:06;99815.38;;;5.13;62.69
73870;BME280;64924;42.140;24.762;2023-12-20T05:15:32;99817.06;;;5.14;63.16
73870;BME280;64924;42.140;24.762;2023-12-20T05:17:57;99823.69;;;5.01;63.00
73870;BME280;64924;42.140;24.762;2023-12-20T05:20:22;99806.31;;;4.96;63.10
73870;BME280;64924;42.140;24.762;2023-12-20T05:22:48;99803.84;;;5.02;63.86
73870;BME280;64924;42.140;24.762;2023-12-20T05:25:14;99802.91;;;4.94;63.25
73870;BME280;64924;42.140;24.762;2023-12-20T05:27:39;99806.38;;;4.86;64.21
73870;BME280;64924;42.140;24.762;2023-12-20T05:30:05;99799.38;;;4.93;64.45
73870;BME280;64924;42.140;24.762;2023-12-20T05:32:31;99789.34;;;4.78;63.89
73870;BME280;64924;42.140;24.762;2023-12-20T05:34:56;99762.06;;;4.55;63.89
73870;BME280;64924;42.140;24.762;2023-12-20T05:37:22;99782.75;;;4.72;63.88
73870;BME280;64924;42.140;24.762;2023-12-20T05:39:47;99793.25;;;4.83;63.84
73870;BME280;64924;42.140;24.762;2023-12-20T05:42:13;99747.00;;;4.62;63.62
73870;BME280;64924;42.140;24.762;2023-12-20T05:44:38;99747.53;;;4.65;63.47
73870;BME280;64924;42.140;24.762;2023-12-20T05:47:04;99785.69;;;4.87;63.33
73870;BME280;64924;42.140;24.762;2023-12-20T05:49:29;99737.31;;;4.69;63.41
73870;BME280;64924;42.140;24.762;2023-12-20T05:51:55;99762.00;;;4.90;63.21
73870;BME280;64924;42.140;24.762;2023-12-20T05:54:20;99780.97;;;5.07;63.19
73870;BME280;64924;42.140;24.762;2023-12-20T05:56:46;99764.66;;;5.08;62.83
73870;BME280;64924;42.140;24.762;2023-12-20T05:59:12;99760.13;;;5.09;62.83
73870;BME280;64924;42.140;24.762;2023-12-20T06:01:37;99772.00;;;5.24;62.56
73870;BME280;64924;42.140;24.762;2023-12-20T06:04:03;99773.19;;;5.29;62.40
73870;BME280;64924;42.140;24.762;2023-12-20T06:06:29;99770.66;;;5.28;61.41
73870;BME280;64924;42.140;24.762;2023-12-20T06:08:55;99756.44;;;5.10;62.06
73870;BME280;64924;42.140;24.762;2023-12-20T06:11:21;99764.56;;;5.18;62.26
73870;BME280;64924;42.140;24.762;2023-12-20T06:13:46;99771.16;;;5.23;62.30
73870;BME280;64924;42.140;24.762;2023-12-20T06:16:12;99729.34;;;5.11;62.12
73870;BME280;64924;42.140;24.762;2023-12-20T06:18:37;99770.63;;;5.46;62.33
73870;BME280;64924;42.140;24.762;2023-12-20T06:21:03;99769.81;;;5.61;61.90
73870;BME280;64924;42.140;24.762;2023-12-20T06:23:29;99770.13;;;5.84;61.60
73870;BME280;64924;42.140;24.762;2023-12-20T06:25:55;99767.47;;;6.00;61.03
73870;BME280;64924;42.140;24.762;2023-12-20T06:28:20;99715.19;;;5.85;60.39
73870;BME280;64924;42.140;24.762;2023-12-20T06:30:45;99764.22;;;6.31;59.91
73870;BME280;64924;42.140;24.762;2023-12-20T06:33:14;99740.28;;;6.60;58.85
73870;BME280;64924;42.140;24.762;2023-12-20T06:35:40;99704.13;;;6.86;57.54
73870;BME280;64924;42.140;24.762;2023-12-20T06:38:05;99749.88;;;7.59;55.74
73870;BME280;64924;42.140;24.762;2023-12-20T06:40:31;99760.31;;;8.09;54.39
73870;BME280;64924;42.140;24.762;2023-12-20T06:42:56;99761.66;;;8.44;52.88
73870;BME280;64924;42.140;24.762;2023-12-20T06:45:21;99758.03;;;8.75;51.99
73870;BME280;64924;42.140;24.762;2023-12-20T06:47:47;99753.53;;;9.04;51.80
73870;BME280;64924;42.140;24.762;2023-12-20T06:50:12;99704.84;;;9.11;50.39
73870;BME280;64924;42.140;24.762;2023-12-20T06:52:38;99748.88;;;9.72;49.74
73870;BME280;64924;42.140;24.762;2023-12-20T06:55:03;99697.06;;;9.82;48.89
73870;BME280;64924;42.140;24.762;2023-12-20T06:57:29;99733.66;;;10.36;47.84
73870;BME280;64924;42.140;24.762;2023-12-20T06:59:55;99742.59;;;10.80;47.03
73870;BME280;64924;42.140;24.762;2023-12-20T07:02:21;99740.28;;;10.98;46.32
73870;BME280;64924;42.140;24.762;2023-12-20T07:04:47;99740.75;;;11.36;45.43
73870;BME280;64924;42.140;24.762;2023-12-20T07:07:13;99718.72;;;11.59;45.14
73870;BME280;64924;42.140;24.762;2023-12-20T07:09:38;99734.78;;;11.88;44.04
73870;BME280;64924;42.140;24.762;2023-12-20T07:12:06;99732.19;;;12.15;43.93
73870;BME280;64924;42.140;24.762;2023-12-20T07:14:31;99724.94;;;12.42;43.13
73870;BME280;64924;42.140;24.762;2023-12-20T07:16:57;99688.00;;;12.32;42.64
73870;BME280;64924;42.140;24.762;2023-12-20T07:19:22;99721.00;;;12.77;42.19
73870;BME280;64924;42.140;24.762;2023-12-20T07:21:48;99716.19;;;12.99;41.63
73870;BME280;64924;42.140;24.762;2023-12-20T07:24:13;99677.38;;;12.97;40.58
73870;BME280;64924;42.140;24.762;2023-12-20T07:26:39;99699.59;;;13.07;41.42
73870;BME280;64924;42.140;24.762;2023-12-20T07:29:05;99670.00;;;13.11;40.82
73870;BME280;64924;42.140;24.762;2023-12-20T07:31:32;99698.50;;;13.48;40.71
73870;BME280;64924;42.140;24.762;2023-12-20T07:33:58;99661.56;;;13.52;40.22
73870;BME280;64924;42.140;24.762;2023-12-20T07:36:23;99657.72;;;13.66;39.49
73870;BME280;64924;42.140;24.762;2023-12-20T07:38:49;99696.63;;;14.06;39.35
73870;BME280;64924;42.140;24.762;2023-12-20T07:41:14;99700.13;;;14.20;39.16
73870;BME280;64924;42.140;24.762;2023-12-20T07:43:41;99692.25;;;14.36;38.79
73870;BME280;64924;42.140;24.762;2023-12-20T07:46:08;99649.63;;;14.29;38.26
73870;BME280;64924;42.140;24.762;2023-12-20T07:48:35;99688.78;;;14.54;38.23
73870;BME280;64924;42.140;24.762;2023-12-20T07:51:01;99687.94;;;14.54;37.96
73870;BME280;64924;42.140;24.762;2023-12-20T07:53:26;99653.03;;;14.56;37.53
73870;BME280;64924;42.140;24.762;2023-12-20T07:55:52;99685.31;;;14.97;37.36
73870;BME280;64924;42.140;24.762;2023-12-20T07:58:18;99687.19;;;14.96;37.31
73870;BME280;64924;42.140;24.762;2023-12-20T08:00:43;99691.06;;;14.89;37.05
73870;BME280;64924;42.140;24.762;2023-12-20T08:03:09;99677.50;;;14.76;37.03
73870;BME280;64924;42.140;24.762;2023-12-20T08:05:35;99637.50;;;14.50;37.25
73870;BME280;64924;42.140;24.762;2023-12-20T08:08:00;99672.81;;;14.51;37.21
73870;BME280;64924;42.140;24.762;2023-12-20T08:10:26;99640.53;;;14.03;37.56
73870;BME280;64924;42.140;24.762;2023-12-20T08:12:52;99672.31;;;13.91;38.00
73870;BME280;64924;42.140;24.762;2023-12-20T08:15:17;99673.91;;;13.61;38.80
73870;BME280;64924;42.140;24.762;2023-12-20T08:17:43;99672.47;;;13.45;38.86
73870;BME280;64924;42.140;24.762;2023-12-20T08:20:08;99660.78;;;13.31;39.39
73870;BME280;64924;42.140;24.762;2023-12-20T08:22:34;99633.06;;;13.34;39.17
73870;BME280;64924;42.140;24.762;2023-12-20T08:24:59;99658.94;;;13.77;39.12
73870;BME280;64924;42.140;24.762;2023-12-20T08:27:25;99666.38;;;14.08;38.33
73870;BME280;64924;42.140;24.762;2023-12-20T08:29:51;99664.75;;;14.31;38.12
73870;BME280;64924;42.140;24.762;2023-12-20T08:32:16;99665.41;;;14.58;37.76
73870;BME280;64924;42.140;24.762;2023-12-20T08:34:42;99633.22;;;14.60;37.04
73870;BME280;64924;42.140;24.762;2023-12-20T08:37:07;99657.06;;;14.78;36.73
73870;BME280;64924;42.140;24.762;2023-12-20T08:39:33;99635.47;;;14.45;36.78
73870;BME280;64924;42.140;24.762;2023-12-20T08:41:59;99632.03;;;14.50;36.99
73870;BME280;64924;42.140;24.762;2023-12-20T08:44:24;99639.94;;;14.64;37.02
73870;BME280;64924;42.140;24.762;2023-12-20T08:46:50;99640.50;;;14.73;37.00
73870;BME280;64924;42.140;24.762;2023-12-20T08:49:15;99619.91;;;14.46;37.35
73870;BME280;64924;42.140;24.762;2023-12-20T08:51:41;99615.00;;;14.16;37.82
73870;BME280;64924;42.140;24.762;2023-12-20T08:54:07;99622.78;;;13.81;38.33
73870;BME280;64924;42.140;24.762;2023-12-20T08:56:35;99609.34;;;13.35;39.71
73870;BME280;64924;42.140;24.762;2023-12-20T08:59:01;99603.09;;;13.08;40.04
73870;BME280;64924;42.140;24.762;2023-12-20T09:01:26;99605.44;;;12.85;40.80
73870;BME280;64924;42.140;24.762;2023-12-20T09:03:52;99593.53;;;12.59;41.13
73870;BME280;64924;42.140;24.762;2023-12-20T09:06:17;99597.91;;;12.41;41.94
73870;BME280;64924;42.140;24.762;2023-12-20T09:08:42;99591.22;;;12.17;42.60
73870;BME280;64924;42.140;24.762;2023-12-20T09:11:08;99595.34;;;11.99;43.09
73870;BME280;64924;42.140;24.762;2023-12-20T09:13:33;99488.00;;;11.34;43.62
73870;BME280;64924;42.140;24.762;2023-12-20T09:15:59;99575.25;;;12.00;43.71
73870;BME280;64924;42.140;24.762;2023-12-20T09:18:25;99567.53;;;12.37;43.07
73870;BME280;64924;42.140;24.762;2023-12-20T09:20:50;99561.00;;;12.78;42.76
73870;BME280;64924;42.140;24.762;2023-12-20T09:23:16;99542.03;;;13.09;41.99
73870;BME280;64924;42.140;24.762;2023-12-20T09:25:42;99527.31;;;13.23;41.26
73870;BME280;64924;42.140;24.762;2023-12-20T09:28:08;99546.50;;;13.48;40.58
73870;BME280;64924;42.140;24.762;2023-12-20T09:30:33;99550.19;;;13.67;39.99
73870;BME280;64924;42.140;24.762;2023-12-20T09:33:00;99546.84;;;13.65;39.88
73870;BME280;64924;42.140;24.762;2023-12-20T09:35:26;99537.84;;;13.58;40.05
73870;BME280;64924;42.140;24.762;2023-12-20T09:37:51;99492.50;;;13.19;40.33
73870;BME280;64924;42.140;24.762;2023-12-20T09:40:20;99488.69;;;13.26;40.21
73870;BME280;64924;42.140;24.762;2023-12-20T09:43:09;99512.88;;;13.54;40.02
73870;BME280;64924;42.140;24.762;2023-12-20T09:45:35;99484.06;;;13.27;40.43
73870;BME280;64924;42.140;24.762;2023-12-20T09:48:01;99505.34;;;13.50;40.27
73870;BME280;64924;42.140;24.762;2023-12-20T09:50:30;99501.56;;;13.51;40.20
73870;BME280;64924;42.140;24.762;2023-12-20T09:52:57;99492.38;;;13.38;40.52
73870;BME280;64924;42.140;24.762;2023-12-20T09:55:25;99510.28;;;13.34;40.72
73870;BME280;64924;42.140;24.762;2023-12-20T09:57:51;99492.06;;;13.15;40.52
73870;BME280;64924;42.140;24.762;2023-12-20T10:00:16;99483.34;;;12.93;41.32
73870;BME280;64924;42.140;24.762;2023-12-20T10:02:53;99489.16;;;13.03;41.13
73870;BME280;64924;42.140;24.762;2023-12-20T10:05:26;99481.91;;;12.91;41.70
73870;BME280;64924;42.140;24.762;2023-12-20T10:07:52;99478.34;;;12.84;41.71
73870;BME280;64924;42.140;24.762;2023-12-20T10:10:18;99467.25;;;12.79;41.72
73870;BME280;64924;42.140;24.762;2023-12-20T10:13:04;99459.09;;;12.72;41.87
73870;BME280;64924;42.140;24.762;2023-12-20T10:15:31;99458.53;;;12.57;41.56
73870;BME280;64924;42.140;24.762;2023-12-20T10:17:57;99459.16;;;12.46;41.97
73870;BME280;64924;42.140;24.762;2023-12-20T10:20:23;99461.28;;;12.37;42.38
73870;BME280;64924;42.140;24.762;2023-12-20T10:22:49;99411.47;;;12.10;42.26
73870;BME280;64924;42.140;24.762;2023-12-20T10:25:14;99446.81;;;12.36;42.13
73870;BME280;64924;42.140;24.762;2023-12-20T10:27:40;99444.50;;;12.40;41.77
73870;BME280;64924;42.140;24.762;2023-12-20T10:30:06;99401.19;;;12.05;41.63
73870;BME280;64924;42.140;24.762;2023-12-20T10:32:31;99434.66;;;12.32;41.61
73870;BME280;64924;42.140;24.762;2023-12-20T10:34:57;99415.19;;;12.29;41.69
73870;BME280;64924;42.140;24.762;2023-12-20T10:37:24;99419.78;;;12.35;41.77
73870;BME280;64924;42.140;24.762;2023-12-20T10:39:51;99401.34;;;12.30;41.41
73870;BME280;64924;42.140;24.762;2023-12-20T10:42:21;99418.50;;;12.51;41.48
73870;BME280;64924;42.140;24.762;2023-12-20T10:44:47;99378.75;;;12.23;41.96
73870;BME280;64924;42.140;24.762;2023-12-20T10:47:15;99395.47;;;12.40;41.59
73870;BME280;64924;42.140;24.762;2023-12-20T10:49:41;99394.59;;;12.46;42.10
73870;BME280;64924;42.140;24.762;2023-12-20T10:52:07;99346.47;;;12.27;42.14
73870;BME280;64924;42.140;24.762;2023-12-20T10:54:34;99386.22;;;12.54;42.38
73870;BME280;64924;42.140;24.762;2023-12-20T10:57:00;99377.41;;;12.52;42.20
73870;BME280;64924;42.140;24.762;2023-12-20T10:59:33;99382.34;;;12.68;41.70
73870;BME280;64924;42.140;24.762;2023-12-20T11:01:59;99361.81;;;12.66;41.21
73870;BME280;64924;42.140;24.762;2023-12-20T11:04:36;99365.50;;;12.85;41.05
73870;BME280;64924;42.140;24.762;2023-12-20T11:07:19;99363.59;;;12.92;40.57
73870;BME280;64924;42.140;24.762;2023-12-20T11:09:59;99360.16;;;13.03;40.68
73870;BME280;64924;42.140;24.762;2023-12-20T11:12:37;99355.91;;;13.14;40.54
73870;BME280;64924;42.140;24.762;2023-12-20T11:15:06;99306.34;;;12.92;40.15
73870;BME280;64924;42.140;24.762;2023-12-20T11:17:32;99339.31;;;13.15;39.90
73870;BME280;64924;42.140;24.762;2023-12-20T11:22:29;99308.94;;;13.05;39.38
73870;BME280;64924;42.140;24.762;2023-12-20T11:25:03;99307.69;;;12.76;39.60
73870;BME280;64924;42.140;24.762;2023-12-20T11:27:30;99326.97;;;12.75;40.38
73870;BME280;64924;42.140;24.762;2023-12-20T11:29:57;99332.66;;;12.66;40.79
73870;BME280;64924;42.140;24.762;2023-12-20T11:34:58;99313.97;;;12.32;40.95
73870;BME280;64924;42.140;24.762;2023-12-20T11:37:32;99270.72;;;11.97;41.77
73870;BME280;64924;42.140;24.762;2023-12-20T11:40:05;99317.81;;;12.18;41.88
73870;BME280;64924;42.140;24.762;2023-12-20T11:42:38;99300.44;;;12.05;42.32
73870;BME280;64924;42.140;24.762;2023-12-20T11:45:04;99309.25;;;12.01;42.48
73870;BME280;64924;42.140;24.762;2023-12-20T11:47:31;99245.03;;;11.67;42.94
73870;BME280;64924;42.140;24.762;2023-12-20T11:49:57;99286.63;;;12.00;42.63
73870;BME280;64924;42.140;24.762;2023-12-20T11:52:22;99285.53;;;12.21;42.34
73870;BME280;64924;42.140;24.762;2023-12-20T11:54:48;99286.91;;;12.37;42.11
73870;BME280;64924;42.140;24.762;2023-12-20T11:57:13;99278.75;;;12.37;42.21
73870;BME280;64924;42.140;24.762;2023-12-20T11:59:39;99269.22;;;12.15;43.00
73870;BME280;64924;42.140;24.762;2023-12-20T12:02:05;99269.28;;;11.88;43.17
73870;BME280;64924;42.140;24.762;2023-12-20T12:04:31;99263.69;;;11.77;44.38
73870;BME280;64924;42.140;24.762;2023-12-20T12:06:57;99264.09;;;11.80;44.09
73870;BME280;64924;42.140;24.762;2023-12-20T12:09:22;99258.81;;;11.92;44.32
73870;BME280;64924;42.140;24.762;2023-12-20T12:11:47;99258.16;;;11.96;44.09
73870;BME280;64924;42.140;24.762;2023-12-20T12:14:13;99261.53;;;11.92;44.93
73870;BME280;64924;42.140;24.762;2023-12-20T12:16:39;99254.19;;;11.99;45.09
73870;BME280;64924;42.140;24.762;2023-12-20T12:19:06;99200.66;;;11.66;45.79
73870;BME280;64924;42.140;24.762;2023-12-20T12:21:32;99247.28;;;11.96;46.24
73870;BME280;64924;42.140;24.762;2023-12-20T12:24:08;99229.91;;;11.91;47.24
73870;BME280;64924;42.140;24.762;2023-12-20T12:26:33;99242.94;;;11.76;48.50
73870;BME280;64924;42.140;24.762;2023-12-20T12:28:59;99229.97;;;11.78;47.86
73870;BME280;64924;42.140;24.762;2023-12-20T12:31:24;99223.47;;;11.72;48.43
73870;BME280;64924;42.140;24.762;2023-12-20T12:33:52;99227.25;;;11.71;48.24
73870;BME280;64924;42.140;24.762;2023-12-20T12:36:17;99241.91;;;11.77;48.77
73870;BME280;64924;42.140;24.762;2023-12-20T12:38:43;99227.88;;;11.80;48.74
73870;BME280;64924;42.140;24.762;2023-12-20T12:41:09;99226.41;;;11.70;48.81
73870;BME280;64924;42.140;24.762;2023-12-20T12:43:36;99236.03;;;11.66;48.99
73870;BME280;64924;42.140;24.762;2023-12-20T12:46:01;99223.28;;;11.67;48.87
73870;BME280;64924;42.140;24.762;2023-12-20T12:48:27;99215.94;;;11.74;48.98
73870;BME280;64924;42.140;24.762;2023-12-20T12:50:53;99222.00;;;11.76;48.87
73870;BME280;64924;42.140;24.762;2023-12-20T12:53:19;99204.81;;;11.76;48.82
73870;BME280;64924;42.140;24.762;2023-12-20T12:55:45;99215.09;;;11.80;48.69